Five Points, KY

11:01 PM CST on January 18, 2017 (GMT -0600)
Elmbrook | | Change Station

Elev 538 ft 36.60 °N, 88.34 °W | Updated 16 minutes ago

Overcast
Overcast
45.4 °F
Feels Like 45 °F
N
0.0
Wind Variable Wind from NNE
Gusts 1.0 mph

Today
High -- | Low -- °F
--% Chance of Precip.
Yesterday
High -- | Low -- °F
Precip. -- in
Pressure 30.08 in
Visibility 10.0 miles
Clouds Overcast 7000 ft
Windchill 45 °F
Dew Point 41 °F
Humidity 84%
Rainfall 0.00 in
Snow Depth Not available.
7:03 AM 5:04 PM
Waning Gibbous, 57% visible
METAR KCEY 190435Z AUTO 03003KT 10SM OVC070 07/07 A3008 RMK AO1
Pressure 30.08 in
Visibility 10.0 miles
Clouds Overcast 7000 ft
Windchill 45 °F
Dew Point 41 °F
Humidity 84%
Rainfall 0.00 in
Snow Depth Not available.
7:03 AM 5:04 PM
Waning Gibbous, 57% visible
METAR KCEY 190435Z AUTO 03003KT 10SM OVC070 07/07 A3008 RMK AO1

Get Your Daily Forecast Email!

Thanks for signing up!

Be on the lookout for a verification email in your inbox.

You'll start receiving the daily forecast at 8 AM.

×

10-Day Weather Forecast

Almanac

Astronomy

Jan. 18, 2017 Rise Set
Actual Time
Civil Twilight
Nautical Twilight
Astronomical Twilight
Moon
Length of Visible Light
Length of Day
Tomorrow will be .
, % of the Moon is Illuminated

Today's Extremes

State Highs State Lows

Community

WunderPhotos

Upload Photos

1,962,540 photos uploaded!

WunderBlog® & News

Nearby

Air Quality

  Air Quality AQ Index Pollutant
Not available.

Snow Depth

Station Depth Elevation

Earthquake Activity

City Distance Mag. Time & Date
Minimum magnitude displayed is 2.5.

Coastal Water Temperatures

Place Temperature

Stations

Nearby Weather Stations

Station Location Temp. Windchill Dew Point Humidity Wind Precip. Elev Updated Type
                   

Watches & Warnings

There are currently no watches in effect.